White Deer, TX (79097)

2:44 PM CDT on September 02, 2014 (GMT -0500)
WT_Meso Pampa 2E | Change Station
CLOSE
Current Station
Personal Weather Station
Location: Pampa, TX
Elevation: 3215 ft
Nearby Weather Stations

Elev 3215 ft 35.54 °N, 100.93 °W | Updated 49 minutes ago

Clear
Clear
87 °F
Feels Like 88 °F
N
7
Wind Variable Wind from ENE
Gusts 12.0 mph

Today
High -- | Low -- °F
--% Chance of Precip.
Yesterday
High -- | Low -- °F
Precip. -- in
7:17 AM 8:10 PM
First Quarter, 54% visible
Pressure 30.00 in
Visibility 10.0 miles
Clouds Clear
Heat Index 88 °F
Dew Point 64 °F
Humidity 46%
Rainfall -999.00 in
Snow Depth Not available.
UV 10 out of 12
Pollen 10.40 out of 12
Air Quality Not available.
Flu Activity Not available.
METAR KPPA 021935Z AUTO 13009G15KT 100V160 10SM CLR 33/15 A3000 RMK AO2 T03260146

More Conditions Fewer Conditions

Pressure 30.00 in
Visibility 10.0 miles
Clouds Clear
Heat Index 88 °F
Dew Point 64 °F
Humidity 46%
Rainfall -999.00 in
Snow Depth Not available.
UV 10 out of 12
Pollen 10.40 out of 12
Air Quality Not available.
Flu Activity Not available.
METAR KPPA 021935Z AUTO 13009G15KT 100V160 10SM CLR 33/15 A3000 RMK AO2 T03260146

More Conditions Fewer Conditions

10-Day Weather Forecast

Almanac

Astronomy

Sep. 02, 2014 Rise Set
Actual Time 7:17 AM CDT 8:10 PM CDT
Civil Twilight 6:51 AM CDT 8:36 PM CDT
Nautical Twilight 6:21 AM CDT 9:06 PM CDT
Astronomical Twilight 5:49 AM CDT 9:38 PM CDT
Moon 2:48 PM CDT 12:28 AM CDT
Length of Visible Light 13h 44m
Length of Day
12h 52m
Tomorrow will be 2m 8s shorter.
First Quarter, 54% of the Moon is Illuminated
Today
First Quarter
Sep 8
Full
Sep 15
Last Quarter
Sep 24
New
Oct 1
First Quarter

Today's Extremes

State Highs State Lows

Community

WunderPhotos

Upload Photos

1,749,751 photos uploaded!

WunderBlogs® & News

By Dr. Jeff Masters
Director of Meteorology, Weather Underground
By Kari Strenfel
Meteorologist, Weather Underground
By Christopher C. Burt
Weather Historian, Weather Underground
September 2, 2014
September 2, 2014
September 2, 2014

Nearby

Snow Depth

Station Depth Elevation
No new snow has been reported.

Earthquake Activity

City Distance Mag. Time & Date
No recent earthquake activity has been reported nearby.
Minimum magnitude displayed is 2.5.

Coastal Water Temperatures

Place Temperature
No Stations Reporting

Nearby Weather Stations